sensor_id;sensor_type;location;lat;lon;timestamp;pressure;altitude;pressure_sealevel;temperature;humidity
23170;BME280;11753;43.144;24.714;2023-02-28T00:00:04;100323.59;;;6.82;100.00
23170;BME280;11753;43.144;24.714;2023-02-28T00:01:14;100323.41;;;6.96;100.00
23170;BME280;11753;43.144;24.714;2023-02-28T00:02:15;100317.84;;;7.01;100.00
23170;BME280;11753;43.144;24.714;2023-02-28T00:03:17;100298.31;;;6.70;100.00
23170;BME280;11753;43.144;24.714;2023-02-28T00:04:18;100310.78;;;6.90;100.00
23170;BME280;11753;43.144;24.714;2023-02-28T00:05:22;100321.19;;;7.03;100.00
23170;BME280;11753;43.144;24.714;2023-02-28T00:06:23;100323.22;;;7.10;100.00
23170;BME280;11753;43.144;24.714;2023-02-28T00:07:24;100324.44;;;7.17;100.00
23170;BME280;11753;43.144;24.714;2023-02-28T00:08:25;100321.69;;;7.19;100.00
23170;BME280;11753;43.144;24.714;2023-02-28T00:09:26;100324.69;;;7.26;100.00
23170;BME280;11753;43.144;24.714;2023-02-28T00:10:29;100326.16;;;7.30;100.00
23170;BME280;11753;43.144;24.714;2023-02-28T00:11:30;100328.78;;;7.30;100.00
23170;BME280;11753;43.144;24.714;2023-02-28T00:12:32;100321.63;;;7.32;100.00
23170;BME280;11753;43.144;24.714;2023-02-28T00:13:34;100324.50;;;7.40;100.00
23170;BME280;11753;43.144;24.714;2023-02-28T00:14:38;100331.41;;;7.41;100.00
23170;BME280;11753;43.144;24.714;2023-02-28T00:15:39;100332.47;;;7.38;100.00
23170;BME280;11753;43.144;24.714;2023-02-28T00:16:40;100334.13;;;7.39;100.00
23170;BME280;11753;43.144;24.714;2023-02-28T00:17:41;100349.63;;;7.42;100.00
23170;BME280;11753;43.144;24.714;2023-02-28T00:18:42;100349.72;;;7.41;100.00
23170;BME280;11753;43.144;24.714;2023-02-28T00:19:43;100349.03;;;7.39;100.00
23170;BME280;11753;43.144;24.714;2023-02-28T00:20:45;100356.75;;;7.05;100.00
23170;BME280;11753;43.144;24.714;2023-02-28T00:21:48;100358.94;;;6.87;100.00
23170;BME280;11753;43.144;24.714;2023-02-28T00:22:51;100354.28;;;6.80;100.00
23170;BME280;11753;43.144;24.714;2023-02-28T00:23:52;100360.28;;;6.93;100.00
23170;BME280;11753;43.144;24.714;2023-02-28T00:24:55;100363.56;;;6.84;100.00
23170;BME280;11753;43.144;24.714;2023-02-28T00:25:56;100373.38;;;6.93;100.00
23170;BME280;11753;43.144;24.714;2023-02-28T00:26:57;100363.28;;;6.76;100.00
23170;BME280;11753;43.144;24.714;2023-02-28T00:27:58;100365.53;;;6.93;100.00
23170;BME280;11753;43.144;24.714;2023-02-28T00:28:59;100365.09;;;6.62;100.00
23170;BME280;11753;43.144;24.714;2023-02-28T00:30:00;100351.03;;;6.76;100.00
23170;BME280;11753;43.144;24.714;2023-02-28T00:31:02;100374.25;;;6.81;100.00
23170;BME280;11753;43.144;24.714;2023-02-28T00:32:03;100368.09;;;6.82;100.00
23170;BME280;11753;43.144;24.714;2023-02-28T00:33:05;100373.91;;;6.85;100.00
23170;BME280;11753;43.144;24.714;2023-02-28T00:34:06;100376.38;;;6.76;100.00
23170;BME280;11753;43.144;24.714;2023-02-28T00:35:08;100377.03;;;6.67;100.00
23170;BME280;11753;43.144;24.714;2023-02-28T00:36:10;100373.88;;;6.74;100.00
23170;BME280;11753;43.144;24.714;2023-02-28T00:37:12;100379.63;;;6.79;100.00
23170;BME280;11753;43.144;24.714;2023-02-28T00:38:14;100373.75;;;6.76;100.00
23170;BME280;11753;43.144;24.714;2023-02-28T00:39:16;100373.00;;;6.86;100.00
23170;BME280;11753;43.144;24.714;2023-02-28T00:40:17;100375.06;;;6.94;100.00
23170;BME280;11753;43.144;24.714;2023-02-28T00:41:18;100372.91;;;6.99;100.00
23170;BME280;11753;43.144;24.714;2023-02-28T00:42:19;100370.22;;;7.01;100.00
23170;BME280;11753;43.144;24.714;2023-02-28T00:43:20;100363.91;;;7.03;100.00
23170;BME280;11753;43.144;24.714;2023-02-28T00:44:21;100370.25;;;7.12;100.00
23170;BME280;11753;43.144;24.714;2023-02-28T00:45:22;100366.41;;;7.05;100.00
23170;BME280;11753;43.144;24.714;2023-02-28T00:46:23;100371.81;;;7.14;100.00
23170;BME280;11753;43.144;24.714;2023-02-28T00:47:24;100375.16;;;7.16;100.00
23170;BME280;11753;43.144;24.714;2023-02-28T00:48:25;100384.78;;;7.16;100.00
23170;BME280;11753;43.144;24.714;2023-02-28T00:49:27;100392.00;;;7.12;100.00
23170;BME280;11753;43.144;24.714;2023-02-28T00:50:28;100389.41;;;7.12;100.00
23170;BME280;11753;43.144;24.714;2023-02-28T00:51:31;100381.94;;;6.95;100.00
23170;BME280;11753;43.144;24.714;2023-02-28T00:52:32;100384.41;;;7.09;100.00
23170;BME280;11753;43.144;24.714;2023-02-28T00:53:33;100387.97;;;7.08;100.00
23170;BME280;11753;43.144;24.714;2023-02-28T00:54:34;100384.06;;;6.90;100.00
23170;BME280;11753;43.144;24.714;2023-02-28T00:55:35;100387.78;;;6.99;100.00
23170;BME280;11753;43.144;24.714;2023-02-28T00:56:37;100386.63;;;6.79;100.00
23170;BME280;11753;43.144;24.714;2023-02-28T00:57:40;100389.25;;;6.79;100.00
23170;BME280;11753;43.144;24.714;2023-02-28T00:58:41;100396.69;;;6.72;100.00
23170;BME280;11753;43.144;24.714;2023-02-28T00:59:41;100391.50;;;6.83;100.00
23170;BME280;11753;43.144;24.714;2023-02-28T01:00:42;100394.69;;;6.76;100.00
23170;BME280;11753;43.144;24.714;2023-02-28T01:01:44;100390.97;;;6.67;100.00
23170;BME280;11753;43.144;24.714;2023-02-28T01:02:46;100382.78;;;6.72;100.00
23170;BME280;11753;43.144;24.714;2023-02-28T01:03:47;100390.13;;;6.67;100.00
23170;BME280;11753;43.144;24.714;2023-02-28T01:04:48;100394.97;;;6.84;100.00
23170;BME280;11753;43.144;24.714;2023-02-28T01:05:50;100399.63;;;6.68;100.00
23170;BME280;11753;43.144;24.714;2023-02-28T01:06:51;100393.56;;;6.67;100.00
23170;BME280;11753;43.144;24.714;2023-02-28T01:07:52;100400.34;;;6.70;100.00
23170;BME280;11753;43.144;24.714;2023-02-28T01:08:53;100390.25;;;6.52;100.00
23170;BME280;11753;43.144;24.714;2023-02-28T01:09:54;100388.06;;;6.46;100.00
23170;BME280;11753;43.144;24.714;2023-02-28T01:10:54;100386.16;;;6.61;100.00
23170;BME280;11753;43.144;24.714;2023-02-28T01:11:56;100390.66;;;6.59;100.00
23170;BME280;11753;43.144;24.714;2023-02-28T01:12:57;100386.44;;;6.69;100.00
23170;BME280;11753;43.144;24.714;2023-02-28T01:13:58;100398.38;;;6.73;100.00
23170;BME280;11753;43.144;24.714;2023-02-28T01:14:59;100391.63;;;6.82;100.00
23170;BME280;11753;43.144;24.714;2023-02-28T01:16:00;100399.31;;;6.96;100.00
23170;BME280;11753;43.144;24.714;2023-02-28T01:17:01;100393.03;;;6.99;100.00
23170;BME280;11753;43.144;24.714;2023-02-28T01:18:02;100402.84;;;7.08;100.00
23170;BME280;11753;43.144;24.714;2023-02-28T01:19:03;100396.03;;;7.05;100.00
23170;BME280;11753;43.144;24.714;2023-02-28T01:20:06;100386.75;;;7.01;100.00
23170;BME280;11753;43.144;24.714;2023-02-28T01:21:12;100388.41;;;7.02;100.00
23170;BME280;11753;43.144;24.714;2023-02-28T01:22:13;100389.75;;;7.08;100.00
23170;BME280;11753;43.144;24.714;2023-02-28T01:23:14;100384.16;;;7.12;100.00
23170;BME280;11753;43.144;24.714;2023-02-28T01:24:15;100380.38;;;7.16;100.00
23170;BME280;11753;43.144;24.714;2023-02-28T01:25:16;100381.81;;;7.21;100.00
23170;BME280;11753;43.144;24.714;2023-02-28T01:26:21;100375.66;;;7.22;100.00
23170;BME280;11753;43.144;24.714;2023-02-28T01:27:23;100381.16;;;7.30;100.00
23170;BME280;11753;43.144;24.714;2023-02-28T01:28:24;100371.38;;;7.32;100.00
23170;BME280;11753;43.144;24.714;2023-02-28T01:29:24;100378.78;;;7.38;100.00
23170;BME280;11753;43.144;24.714;2023-02-28T01:30:26;100370.22;;;7.36;100.00
23170;BME280;11753;43.144;24.714;2023-02-28T01:31:26;100379.75;;;7.48;100.00
23170;BME280;11753;43.144;24.714;2023-02-28T01:32:27;100373.31;;;7.41;100.00
23170;BME280;11753;43.144;24.714;2023-02-28T01:33:28;100374.31;;;7.51;100.00
23170;BME280;11753;43.144;24.714;2023-02-28T01:34:29;100376.44;;;7.46;100.00
23170;BME280;11753;43.144;24.714;2023-02-28T01:35:32;100380.13;;;7.43;100.00
23170;BME280;11753;43.144;24.714;2023-02-28T01:36:33;100374.53;;;7.48;100.00
23170;BME280;11753;43.144;24.714;2023-02-28T01:37:34;100377.88;;;7.50;100.00
23170;BME280;11753;43.144;24.714;2023-02-28T01:38:35;100376.44;;;7.46;100.00
23170;BME280;11753;43.144;24.714;2023-02-28T01:39:36;100378.91;;;7.36;100.00
23170;BME280;11753;43.144;24.714;2023-02-28T01:40:36;100379.25;;;7.32;100.00
23170;BME280;11753;43.144;24.714;2023-02-28T01:41:37;100374.16;;;7.41;100.00
23170;BME280;11753;43.144;24.714;2023-02-28T01:42:37;100382.75;;;7.43;100.00
23170;BME280;11753;43.144;24.714;2023-02-28T01:46:16;100384.09;;;7.60;100.00
23170;BME280;11753;43.144;24.714;2023-02-28T01:47:17;100381.72;;;7.68;100.00
23170;BME280;11753;43.144;24.714;2023-02-28T01:48:19;100384.22;;;7.70;100.00
23170;BME280;11753;43.144;24.714;2023-02-28T01:49:21;100371.13;;;7.70;100.00
23170;BME280;11753;43.144;24.714;2023-02-28T01:50:25;100379.84;;;7.35;100.00
23170;BME280;11753;43.144;24.714;2023-02-28T01:51:33;100383.91;;;7.39;100.00
23170;BME280;11753;43.144;24.714;2023-02-28T01:52:35;100386.19;;;7.44;100.00
23170;BME280;11753;43.144;24.714;2023-02-28T01:53:42;100385.97;;;7.47;100.00
23170;BME280;11753;43.144;24.714;2023-02-28T01:54:48;100390.94;;;7.39;100.00
23170;BME280;11753;43.144;24.714;2023-02-28T01:55:52;100398.59;;;7.53;100.00
23170;BME280;11753;43.144;24.714;2023-02-28T01:57:06;100399.75;;;7.38;100.00
23170;BME280;11753;43.144;24.714;2023-02-28T01:58:08;100398.47;;;7.43;100.00
23170;BME280;11753;43.144;24.714;2023-02-28T01:59:10;100389.06;;;7.52;100.00
23170;BME280;11753;43.144;24.714;2023-02-28T02:00:18;100388.25;;;7.63;100.00
23170;BME280;11753;43.144;24.714;2023-02-28T02:01:22;100390.09;;;7.73;100.00
23170;BME280;11753;43.144;24.714;2023-02-28T02:02:24;100378.06;;;7.82;100.00
23170;BME280;11753;43.144;24.714;2023-02-28T02:03:26;100374.13;;;7.88;100.00
23170;BME280;11753;43.144;24.714;2023-02-28T02:04:32;100367.00;;;8.01;100.00
23170;BME280;11753;43.144;24.714;2023-02-28T02:05:37;100361.75;;;8.01;100.00
23170;BME280;11753;43.144;24.714;2023-02-28T02:06:43;100359.59;;;8.06;100.00
23170;BME280;11753;43.144;24.714;2023-02-28T02:07:46;100349.22;;;8.05;100.00
23170;BME280;11753;43.144;24.714;2023-02-28T02:08:49;100346.47;;;8.17;100.00
23170;BME280;11753;43.144;24.714;2023-02-28T02:09:50;100340.06;;;8.10;100.00
23170;BME280;11753;43.144;24.714;2023-02-28T02:11:02;100344.09;;;8.03;100.00
23170;BME280;11753;43.144;24.714;2023-02-28T02:12:45;100345.78;;;8.04;100.00
23170;BME280;11753;43.144;24.714;2023-02-28T02:15:44;100342.19;;;8.05;100.00
23170;BME280;11753;43.144;24.714;2023-02-28T02:25:54;100339.09;;;7.89;100.00
23170;BME280;11753;43.144;24.714;2023-02-28T02:28:34;100332.78;;;7.91;100.00
23170;BME280;11753;43.144;24.714;2023-02-28T02:31:48;100340.53;;;8.04;100.00
23170;BME280;11753;43.144;24.714;2023-02-28T02:34:24;100343.03;;;8.06;100.00
23170;BME280;11753;43.144;24.714;2023-02-28T02:41:01;100344.56;;;7.97;100.00
23170;BME280;11753;43.144;24.714;2023-02-28T02:42:13;100343.03;;;8.06;100.00
23170;BME280;11753;43.144;24.714;2023-02-28T02:43:19;100338.75;;;8.16;100.00
23170;BME280;11753;43.144;24.714;2023-02-28T02:44:27;100334.56;;;8.13;100.00
23170;BME280;11753;43.144;24.714;2023-02-28T02:45:40;100345.50;;;8.07;100.00
23170;BME280;11753;43.144;24.714;2023-02-28T02:46:45;100332.44;;;7.96;100.00
23170;BME280;11753;43.144;24.714;2023-02-28T02:47:48;100335.53;;;8.01;100.00
23170;BME280;11753;43.144;24.714;2023-02-28T02:48:52;100336.47;;;8.11;100.00
23170;BME280;11753;43.144;24.714;2023-02-28T02:49:57;100344.81;;;8.16;100.00
23170;BME280;11753;43.144;24.714;2023-02-28T02:51:04;100342.19;;;8.16;100.00
23170;BME280;11753;43.144;24.714;2023-02-28T02:52:14;100342.44;;;8.24;100.00
23170;BME280;11753;43.144;24.714;2023-02-28T02:53:22;100342.91;;;8.30;100.00
23170;BME280;11753;43.144;24.714;2023-02-28T02:54:28;100347.91;;;8.33;100.00
23170;BME280;11753;43.144;24.714;2023-02-28T02:55:31;100350.28;;;8.36;100.00
23170;BME280;11753;43.144;24.714;2023-02-28T02:56:35;100350.41;;;8.34;100.00
23170;BME280;11753;43.144;24.714;2023-02-28T02:57:47;100357.81;;;8.40;100.00
23170;BME280;11753;43.144;24.714;2023-02-28T02:58:50;100360.56;;;8.39;100.00
23170;BME280;11753;43.144;24.714;2023-02-28T02:59:56;100364.13;;;8.26;100.00
23170;BME280;11753;43.144;24.714;2023-02-28T03:01:00;100370.31;;;8.25;100.00
23170;BME280;11753;43.144;24.714;2023-02-28T03:02:04;100363.16;;;8.27;100.00
23170;BME280;11753;43.144;24.714;2023-02-28T03:03:08;100363.75;;;8.31;100.00
23170;BME280;11753;43.144;24.714;2023-02-28T03:04:17;100364.97;;;8.38;100.00
23170;BME280;11753;43.144;24.714;2023-02-28T03:05:38;100371.06;;;8.39;100.00
23170;BME280;11753;43.144;24.714;2023-02-28T03:06:42;100365.69;;;8.40;100.00
23170;BME280;11753;43.144;24.714;2023-02-28T03:07:43;100369.63;;;8.46;100.00
23170;BME280;11753;43.144;24.714;2023-02-28T03:08:44;100369.13;;;8.52;100.00
23170;BME280;11753;43.144;24.714;2023-02-28T03:09:56;100373.44;;;8.42;100.00
23170;BME280;11753;43.144;24.714;2023-02-28T03:11:04;100367.47;;;8.51;100.00
23170;BME280;11753;43.144;24.714;2023-02-28T03:12:06;100373.44;;;8.53;100.00
23170;BME280;11753;43.144;24.714;2023-02-28T03:13:52;100372.03;;;8.38;100.00
23170;BME280;11753;43.144;24.714;2023-02-28T03:15:17;100362.34;;;8.16;100.00
23170;BME280;11753;43.144;24.714;2023-02-28T03:20:38;100373.16;;;8.34;100.00
23170;BME280;11753;43.144;24.714;2023-02-28T03:23:07;100379.84;;;8.26;100.00
23170;BME280;11753;43.144;24.714;2023-02-28T03:24:23;100382.25;;;8.30;100.00
23170;BME280;11753;43.144;24.714;2023-02-28T03:25:57;100380.09;;;8.35;100.00
23170;BME280;11753;43.144;24.714;2023-02-28T03:27:09;100393.59;;;8.30;100.00
23170;BME280;11753;43.144;24.714;2023-02-28T03:28:37;100393.97;;;8.37;100.00
23170;BME280;11753;43.144;24.714;2023-02-28T03:29:43;100388.91;;;8.00;100.00
23170;BME280;11753;43.144;24.714;2023-02-28T03:30:59;100395.34;;;8.07;100.00
23170;BME280;11753;43.144;24.714;2023-02-28T03:33:21;100391.53;;;8.00;100.00
23170;BME280;11753;43.144;24.714;2023-02-28T03:33:59;100383.66;;;8.00;100.00
23170;BME280;11753;43.144;24.714;2023-02-28T03:35:06;100384.88;;;7.96;100.00
23170;BME280;11753;43.144;24.714;2023-02-28T03:36:15;100384.84;;;7.73;100.00
23170;BME280;11753;43.144;24.714;2023-02-28T03:37:21;100384.34;;;7.57;100.00
23170;BME280;11753;43.144;24.714;2023-02-28T03:39:01;100389.28;;;7.49;100.00
23170;BME280;11753;43.144;24.714;2023-02-28T03:40:09;100388.88;;;7.31;100.00
23170;BME280;11753;43.144;24.714;2023-02-28T03:41:17;100393.75;;;7.25;100.00
23170;BME280;11753;43.144;24.714;2023-02-28T03:42:28;100388.56;;;7.36;100.00
23170;BME280;11753;43.144;24.714;2023-02-28T03:43:33;100405.44;;;7.32;100.00
23170;BME280;11753;43.144;24.714;2023-02-28T03:44:41;100394.50;;;7.38;100.00
23170;BME280;11753;43.144;24.714;2023-02-28T03:45:45;100399.50;;;7.41;100.00
23170;BME280;11753;43.144;24.714;2023-02-28T03:46:58;100380.00;;;7.45;100.00
23170;BME280;11753;43.144;24.714;2023-02-28T03:48:23;100379.88;;;7.47;100.00
23170;BME280;11753;43.144;24.714;2023-02-28T03:50:04;100381.94;;;7.54;100.00
23170;BME280;11753;43.144;24.714;2023-02-28T03:50:59;100380.75;;;7.58;100.00
23170;BME280;11753;43.144;24.714;2023-02-28T03:52:02;100380.84;;;7.45;100.00
23170;BME280;11753;43.144;24.714;2023-02-28T03:54:17;100381.75;;;7.33;100.00
23170;BME280;11753;43.144;24.714;2023-02-28T03:55:19;100379.84;;;7.35;100.00
23170;BME280;11753;43.144;24.714;2023-02-28T03:56:27;100379.47;;;7.29;100.00
23170;BME280;11753;43.144;24.714;2023-02-28T03:58:06;100381.16;;;7.30;100.00
23170;BME280;11753;43.144;24.714;2023-02-28T03:59:18;100385.56;;;7.29;100.00
23170;BME280;11753;43.144;24.714;2023-02-28T04:00:33;100401.88;;;7.33;100.00
23170;BME280;11753;43.144;24.714;2023-02-28T04:01:41;100401.16;;;7.31;100.00
23170;BME280;11753;43.144;24.714;2023-02-28T04:02:42;100396.31;;;7.13;100.00
23170;BME280;11753;43.144;24.714;2023-02-28T04:03:44;100405.72;;;7.16;100.00
23170;BME280;11753;43.144;24.714;2023-02-28T04:04:44;100401.38;;;7.04;100.00
23170;BME280;11753;43.144;24.714;2023-02-28T04:05:52;100408.28;;;7.05;100.00
23170;BME280;11753;43.144;24.714;2023-02-28T04:07:03;100405.94;;;6.89;100.00
23170;BME280;11753;43.144;24.714;2023-02-28T04:08:07;100402.94;;;6.82;100.00
23170;BME280;11753;43.144;24.714;2023-02-28T04:09:11;100409.78;;;6.96;100.00
23170;BME280;11753;43.144;24.714;2023-02-28T04:10:13;100402.22;;;7.04;100.00
23170;BME280;11753;43.144;24.714;2023-02-28T04:11:23;100404.00;;;7.04;100.00
23170;BME280;11753;43.144;24.714;2023-02-28T04:12:28;100411.97;;;7.02;100.00
23170;BME280;11753;43.144;24.714;2023-02-28T04:13:29;100406.63;;;7.04;100.00
23170;BME280;11753;43.144;24.714;2023-02-28T04:14:30;100410.88;;;6.94;100.00
23170;BME280;11753;43.144;24.714;2023-02-28T04:15:31;100405.78;;;7.03;100.00
23170;BME280;11753;43.144;24.714;2023-02-28T04:16:34;100410.19;;;6.79;100.00
23170;BME280;11753;43.144;24.714;2023-02-28T04:17:36;100411.06;;;6.67;100.00
23170;BME280;11753;43.144;24.714;2023-02-28T04:18:37;100405.69;;;6.68;100.00
23170;BME280;11753;43.144;24.714;2023-02-28T04:19:38;100410.38;;;6.76;100.00
23170;BME280;11753;43.144;24.714;2023-02-28T04:20:39;100416.34;;;6.78;100.00
23170;BME280;11753;43.144;24.714;2023-02-28T04:21:43;100409.78;;;6.72;100.00
23170;BME280;11753;43.144;24.714;2023-02-28T04:22:44;100407.50;;;6.68;100.00
23170;BME280;11753;43.144;24.714;2023-02-28T04:23:46;100399.63;;;6.68;100.00
23170;BME280;11753;43.144;24.714;2023-02-28T04:24:47;100405.81;;;6.67;100.00
23170;BME280;11753;43.144;24.714;2023-02-28T04:25:47;100402.56;;;6.63;100.00
23170;BME280;11753;43.144;24.714;2023-02-28T04:26:52;100405.63;;;6.57;100.00
23170;BME280;11753;43.144;24.714;2023-02-28T04:27:53;100407.63;;;6.53;100.00
23170;BME280;11753;43.144;24.714;2023-02-28T04:28:54;100413.59;;;6.43;100.00
23170;BME280;11753;43.144;24.714;2023-02-28T04:29:55;100409.31;;;6.42;100.00
23170;BME280;11753;43.144;24.714;2023-02-28T04:31:02;100414.84;;;6.50;100.00
23170;BME280;11753;43.144;24.714;2023-02-28T04:32:04;100418.09;;;6.53;100.00
23170;BME280;11753;43.144;24.714;2023-02-28T04:33:05;100422.31;;;6.43;100.00
23170;BME280;11753;43.144;24.714;2023-02-28T04:34:06;100423.31;;;6.53;100.00
23170;BME280;11753;43.144;24.714;2023-02-28T04:35:07;100420.94;;;6.50;100.00
23170;BME280;11753;43.144;24.714;2023-02-28T04:36:08;100429.28;;;6.55;100.00
23170;BME280;11753;43.144;24.714;2023-02-28T04:37:09;100428.13;;;6.59;100.00
23170;BME280;11753;43.144;24.714;2023-02-28T04:38:10;100430.09;;;6.56;100.00
23170;BME280;11753;43.144;24.714;2023-02-28T04:39:12;100433.47;;;6.58;100.00
23170;BME280;11753;43.144;24.714;2023-02-28T04:40:13;100430.22;;;6.54;100.00
23170;BME280;11753;43.144;24.714;2023-02-28T04:41:17;100427.91;;;6.50;100.00
23170;BME280;11753;43.144;24.714;2023-02-28T04:42:18;100426.38;;;6.47;100.00
23170;BME280;11753;43.144;24.714;2023-02-28T04:43:19;100428.13;;;6.59;100.00
23170;BME280;11753;43.144;24.714;2023-02-28T04:44:20;100428.56;;;6.53;100.00
23170;BME280;11753;43.144;24.714;2023-02-28T04:45:21;100427.72;;;6.53;100.00
23170;BME280;11753;43.144;24.714;2023-02-28T04:46:22;100427.31;;;6.46;100.00
23170;BME280;11753;43.144;24.714;2023-02-28T04:47:24;100428.91;;;6.36;100.00
23170;BME280;11753;43.144;24.714;2023-02-28T04:48:27;100429.22;;;6.44;100.00
23170;BME280;11753;43.144;24.714;2023-02-28T04:49:29;100425.66;;;6.45;100.00
23170;BME280;11753;43.144;24.714;2023-02-28T04:50:29;100438.59;;;6.59;100.00
23170;BME280;11753;43.144;24.714;2023-02-28T04:51:30;100436.09;;;6.45;100.00
23170;BME280;11753;43.144;24.714;2023-02-28T04:52:31;100436.53;;;6.52;100.00
23170;BME280;11753;43.144;24.714;2023-02-28T04:53:32;100437.56;;;6.49;100.00
23170;BME280;11753;43.144;24.714;2023-02-28T04:54:36;100435.88;;;6.48;100.00
23170;BME280;11753;43.144;24.714;2023-02-28T04:55:39;100444.03;;;6.56;100.00
23170;BME280;11753;43.144;24.714;2023-02-28T04:56:41;100444.97;;;6.55;100.00
23170;BME280;11753;43.144;24.714;2023-02-28T04:57:42;100442.47;;;6.54;100.00
23170;BME280;11753;43.144;24.714;2023-02-28T04:58:44;100442.19;;;6.46;100.00
23170;BME280;11753;43.144;24.714;2023-02-28T04:59:48;100440.91;;;6.51;100.00
23170;BME280;11753;43.144;24.714;2023-02-28T05:00:50;100452.41;;;6.61;100.00
23170;BME280;11753;43.144;24.714;2023-02-28T05:01:51;100451.44;;;6.62;100.00
23170;BME280;11753;43.144;24.714;2023-02-28T05:02:51;100456.69;;;6.62;100.00
23170;BME280;11753;43.144;24.714;2023-02-28T05:03:54;100451.03;;;6.56;100.00
23170;BME280;11753;43.144;24.714;2023-02-28T05:04:55;100448.00;;;6.49;100.00
23170;BME280;11753;43.144;24.714;2023-02-28T05:05:56;100451.50;;;6.37;100.00
23170;BME280;11753;43.144;24.714;2023-02-28T05:06:57;100459.44;;;6.48;100.00
23170;BME280;11753;43.144;24.714;2023-02-28T05:07:58;100451.38;;;6.51;100.00
23170;BME280;11753;43.144;24.714;2023-02-28T05:09:02;100461.84;;;6.51;100.00
23170;BME280;11753;43.144;24.714;2023-02-28T05:10:04;100455.78;;;6.38;100.00
23170;BME280;11753;43.144;24.714;2023-02-28T05:11:08;100456.94;;;6.34;100.00
23170;BME280;11753;43.144;24.714;2023-02-28T05:12:12;100457.44;;;6.39;100.00
23170;BME280;11753;43.144;24.714;2023-02-28T05:13:13;100449.09;;;6.34;100.00
23170;BME280;11753;43.144;24.714;2023-02-28T05:14:14;100466.66;;;6.45;100.00
23170;BME280;11753;43.144;24.714;2023-02-28T05:15:16;100450.56;;;6.25;100.00
23170;BME280;11753;43.144;24.714;2023-02-28T05:16:17;100460.47;;;6.20;100.00
23170;BME280;11753;43.144;24.714;2023-02-28T05:17:21;100460.59;;;6.31;100.00
23170;BME280;11753;43.144;24.714;2023-02-28T05:18:22;100467.19;;;6.37;100.00
23170;BME280;11753;43.144;24.714;2023-02-28T05:19:23;100461.00;;;6.38;100.00
23170;BME280;11753;43.144;24.714;2023-02-28T05:20:24;100464.88;;;6.45;100.00
23170;BME280;11753;43.144;24.714;2023-02-28T05:21:31;100465.06;;;6.42;100.00
23170;BME280;11753;43.144;24.714;2023-02-28T05:22:33;100465.78;;;6.57;100.00
23170;BME280;11753;43.144;24.714;2023-02-28T05:23:34;100472.31;;;6.51;100.00
23170;BME280;11753;43.144;24.714;2023-02-28T05:24:34;100469.69;;;6.51;100.00
23170;BME280;11753;43.144;24.714;2023-02-28T05:25:35;100459.84;;;6.42;100.00
23170;BME280;11753;43.144;24.714;2023-02-28T05:26:39;100461.31;;;6.33;100.00
23170;BME280;11753;43.144;24.714;2023-02-28T05:27:40;100466.03;;;6.16;100.00
23170;BME280;11753;43.144;24.714;2023-02-28T05:28:41;100475.34;;;6.20;100.00
23170;BME280;11753;43.144;24.714;2023-02-28T05:29:42;100470.66;;;6.25;100.00
23170;BME280;11753;43.144;24.714;2023-02-28T05:30:43;100470.66;;;6.25;100.00
23170;BME280;11753;43.144;24.714;2023-02-28T05:31:45;100471.47;;;6.25;100.00
23170;BME280;11753;43.144;24.714;2023-02-28T05:32:50;100467.91;;;6.26;100.00
23170;BME280;11753;43.144;24.714;2023-02-28T05:33:52;100461.13;;;6.24;100.00
23170;BME280;11753;43.144;24.714;2023-02-28T05:34:53;100460.19;;;6.25;100.00
23170;BME280;11753;43.144;24.714;2023-02-28T05:35:54;100471.06;;;6.19;100.00
23170;BME280;11753;43.144;24.714;2023-02-28T05:36:55;100469.81;;;6.24;100.00
23170;BME280;11753;43.144;24.714;2023-02-28T05:37:56;100467.72;;;6.17;100.00
23170;BME280;11753;43.144;24.714;2023-02-28T05:38:56;100479.97;;;6.16;100.00
23170;BME280;11753;43.144;24.714;2023-02-28T05:39:57;100469.69;;;6.26;100.00
23170;BME280;11753;43.144;24.714;2023-02-28T05:40:58;100476.41;;;6.17;100.00
23170;BME280;11753;43.144;24.714;2023-02-28T05:41:59;100478.91;;;6.19;100.00
23170;BME280;11753;43.144;24.714;2023-02-28T05:43:00;100472.63;;;6.09;100.00
23170;BME280;11753;43.144;24.714;2023-02-28T05:44:01;100475.56;;;6.17;100.00
23170;BME280;11753;43.144;24.714;2023-02-28T05:45:03;100485.28;;;6.15;100.00
23170;BME280;11753;43.144;24.714;2023-02-28T05:46:06;100488.00;;;6.00;100.00
23170;BME280;11753;43.144;24.714;2023-02-28T05:47:07;100474.78;;;5.89;100.00
23170;BME280;11753;43.144;24.714;2023-02-28T05:48:08;100472.91;;;5.91;100.00
23170;BME280;11753;43.144;24.714;2023-02-28T05:49:09;100475.41;;;5.93;100.00
23170;BME280;11753;43.144;24.714;2023-02-28T05:50:10;100485.91;;;6.05;100.00
23170;BME280;11753;43.144;24.714;2023-02-28T05:51:11;100488.00;;;6.00;100.00
23170;BME280;11753;43.144;24.714;2023-02-28T05:52:11;100483.38;;;5.91;100.00
23170;BME280;11753;43.144;24.714;2023-02-28T05:53:12;100493.28;;;5.86;100.00
23170;BME280;11753;43.144;24.714;2023-02-28T05:54:12;100493.34;;;5.72;100.00
23170;BME280;11753;43.144;24.714;2023-02-28T05:55:13;100489.81;;;5.73;100.00
23170;BME280;11753;43.144;24.714;2023-02-28T05:56:14;100495.75;;;5.75;100.00
23170;BME280;11753;43.144;24.714;2023-02-28T05:57:15;100500.44;;;5.70;100.00
23170;BME280;11753;43.144;24.714;2023-02-28T05:58:16;100498.25;;;5.76;100.00
23170;BME280;11753;43.144;24.714;2023-02-28T05:59:17;100488.53;;;5.78;100.00
23170;BME280;11753;43.144;24.714;2023-02-28T06:00:18;100492.13;;;5.90;100.00
23170;BME280;11753;43.144;24.714;2023-02-28T06:02:33;100509.16;;;5.83;100.00